sensor_id;sensor_type;location;lat;lon;timestamp;pressure;altitude;pressure_sealevel;temperature;humidity
72423;BME280;71399;54.146;38.734;2023-12-20T00:00:17;97729.84;;;2.47;100.00
72423;BME280;71399;54.146;38.734;2023-12-20T00:02:43;97717.50;;;2.42;100.00
72423;BME280;71399;54.146;38.734;2023-12-20T00:05:13;97720.09;;;2.42;100.00
72423;BME280;71399;54.146;38.734;2023-12-20T00:07:40;97727.09;;;2.41;100.00
72423;BME280;71399;54.146;38.734;2023-12-20T00:10:06;97732.88;;;2.44;100.00
72423;BME280;71399;54.146;38.734;2023-12-20T00:12:33;97718.75;;;2.39;100.00
72423;BME280;71399;54.146;38.734;2023-12-20T00:14:59;97726.75;;;2.38;100.00
72423;BME280;71399;54.146;38.734;2023-12-20T00:17:26;97735.47;;;2.44;100.00
72423;BME280;71399;54.146;38.734;2023-12-20T00:19:52;97731.66;;;2.46;100.00
72423;BME280;71399;54.146;38.734;2023-12-20T00:22:18;97738.66;;;2.46;100.00
72423;BME280;71399;54.146;38.734;2023-12-20T00:24:44;97736.72;;;2.41;100.00
72423;BME280;71399;54.146;38.734;2023-12-20T00:27:11;97731.16;;;2.37;100.00
72423;BME280;71399;54.146;38.734;2023-12-20T00:29:37;97746.47;;;2.46;100.00
72423;BME280;71399;54.146;38.734;2023-12-20T00:32:03;97740.25;;;2.47;100.00
72423;BME280;71399;54.146;38.734;2023-12-20T00:34:30;97752.25;;;2.48;100.00
72423;BME280;71399;54.146;38.734;2023-12-20T00:36:56;97747.47;;;2.45;100.00
72423;BME280;71399;54.146;38.734;2023-12-20T00:39:23;97745.22;;;2.48;100.00
72423;BME280;71399;54.146;38.734;2023-12-20T00:41:50;97744.66;;;2.46;100.00
72423;BME280;71399;54.146;38.734;2023-12-20T00:44:16;97737.41;;;2.48;100.00
72423;BME280;71399;54.146;38.734;2023-12-20T00:46:42;97731.44;;;2.48;100.00
72423;BME280;71399;54.146;38.734;2023-12-20T00:49:09;97732.88;;;2.44;100.00
72423;BME280;71399;54.146;38.734;2023-12-20T00:51:35;97730.06;;;2.45;100.00
72423;BME280;71399;54.146;38.734;2023-12-20T00:54:01;97731.31;;;2.43;100.00
72423;BME280;71399;54.146;38.734;2023-12-20T00:56:28;97731.31;;;2.43;100.00
72423;BME280;71399;54.146;38.734;2023-12-20T00:58:54;97738.28;;;2.42;100.00
72423;BME280;71399;54.146;38.734;2023-12-20T01:01:21;97726.53;;;2.39;100.00
72423;BME280;71399;54.146;38.734;2023-12-20T01:03:47;97724.38;;;2.36;100.00
72423;BME280;71399;54.146;38.734;2023-12-20T01:06:17;97724.38;;;2.36;100.00
72423;BME280;71399;54.146;38.734;2023-12-20T01:08:43;97721.13;;;2.41;100.00
72423;BME280;71399;54.146;38.734;2023-12-20T01:11:09;97724.28;;;2.43;100.00
72423;BME280;71399;54.146;38.734;2023-12-20T01:13:36;97722.69;;;2.42;100.00
72423;BME280;71399;54.146;38.734;2023-12-20T01:16:02;97711.94;;;2.38;100.00
72423;BME280;71399;54.146;38.734;2023-12-20T01:18:29;97714.66;;;2.44;100.00
72423;BME280;71399;54.146;38.734;2023-12-20T01:20:56;97720.69;;;2.44;100.00
72423;BME280;71399;54.146;38.734;2023-12-20T01:23:22;97725.06;;;2.44;100.00
72423;BME280;71399;54.146;38.734;2023-12-20T01:25:48;97705.38;;;2.36;100.00
72423;BME280;71399;54.146;38.734;2023-12-20T01:28:15;97723.50;;;2.43;100.00
72423;BME280;71399;54.146;38.734;2023-12-20T01:30:41;97725.28;;;2.42;100.00
72423;BME280;71399;54.146;38.734;2023-12-20T01:33:07;97724.28;;;2.43;100.00
72423;BME280;71399;54.146;38.734;2023-12-20T01:35:33;97731.88;;;2.45;100.00
72423;BME280;71399;54.146;38.734;2023-12-20T01:37:59;97730.28;;;2.44;100.00
72423;BME280;71399;54.146;38.734;2023-12-20T01:40:26;97731.53;;;2.41;100.00
72423;BME280;71399;54.146;38.734;2023-12-20T01:42:59;97738.28;;;2.42;100.00
72423;BME280;71399;54.146;38.734;2023-12-20T01:45:26;97731.59;;;2.34;100.00
72423;BME280;71399;54.146;38.734;2023-12-20T01:47:55;97729.56;;;2.36;100.00
72423;BME280;71399;54.146;38.734;2023-12-20T01:50:22;97718.94;;;2.38;100.00
72423;BME280;71399;54.146;38.734;2023-12-20T01:52:49;97722.69;;;2.42;100.00
72423;BME280;71399;54.146;38.734;2023-12-20T01:55:19;97707.97;;;2.36;100.00
72423;BME280;71399;54.146;38.734;2023-12-20T01:57:46;97711.16;;;2.38;100.00
72423;BME280;71399;54.146;38.734;2023-12-20T02:00:13;97708.13;;;2.41;100.00
72423;BME280;71399;54.146;38.734;2023-12-20T02:02:40;97727.75;;;2.37;100.00
72423;BME280;71399;54.146;38.734;2023-12-20T02:05:08;97725.50;;;2.40;100.00
72423;BME280;71399;54.146;38.734;2023-12-20T02:07:35;97714.97;;;2.35;100.00
72423;BME280;71399;54.146;38.734;2023-12-20T02:10:01;97700.41;;;2.34;100.00
72423;BME280;71399;54.146;38.734;2023-12-20T02:12:30;97712.38;;;2.35;100.00
72423;BME280;71399;54.146;38.734;2023-12-20T02:14:56;97710.94;;;2.39;100.00
72423;BME280;71399;54.146;38.734;2023-12-20T02:17:23;97718.94;;;2.38;100.00
72423;BME280;71399;54.146;38.734;2023-12-20T02:19:50;97724.94;;;2.38;100.00
72423;BME280;71399;54.146;38.734;2023-12-20T02:22:16;97719.38;;;2.35;100.00
72423;BME280;71399;54.146;38.734;2023-12-20T02:24:42;97723.59;;;2.36;100.00
72423;BME280;71399;54.146;38.734;2023-12-20T02:27:09;97727.53;;;2.38;100.00
72423;BME280;71399;54.146;38.734;2023-12-20T02:29:36;97719.53;;;2.40;100.00
72423;BME280;71399;54.146;38.734;2023-12-20T02:32:02;97715.56;;;2.37;100.00
72423;BME280;71399;54.146;38.734;2023-12-20T02:34:29;97701.84;;;2.30;100.00
72423;BME280;71399;54.146;38.734;2023-12-20T02:36:55;97700.41;;;2.34;100.00
72423;BME280;71399;54.146;38.734;2023-12-20T02:39:22;97695.97;;;2.35;100.00
72423;BME280;71399;54.146;38.734;2023-12-20T02:41:48;97692.81;;;2.33;100.00
72423;BME280;71399;54.146;38.734;2023-12-20T02:44:15;97687.63;;;2.33;100.00
72423;BME280;71399;54.146;38.734;2023-12-20T02:46:41;97683.22;;;2.33;100.00
72423;BME280;71399;54.146;38.734;2023-12-20T02:49:07;97681.84;;;2.31;100.00
72423;BME280;71399;54.146;38.734;2023-12-20T02:51:33;97683.41;;;2.32;100.00
72423;BME280;71399;54.146;38.734;2023-12-20T02:54:00;97688.84;;;2.30;100.00
72423;BME280;71399;54.146;38.734;2023-12-20T02:56:26;97682.84;;;2.30;100.00
72423;BME280;71399;54.146;38.734;2023-12-20T02:58:52;97680.13;;;2.25;100.00
72423;BME280;71399;54.146;38.734;2023-12-20T03:01:19;97691.44;;;2.30;100.00
72423;BME280;71399;54.146;38.734;2023-12-20T03:03:45;97690.44;;;2.31;100.00
72423;BME280;71399;54.146;38.734;2023-12-20T03:06:16;97694.25;;;2.29;100.00
72423;BME280;71399;54.146;38.734;2023-12-20T03:08:43;97696.28;;;2.27;100.00
72423;BME280;71399;54.146;38.734;2023-12-20T03:11:09;97678.31;;;2.25;100.00
72423;BME280;71399;54.146;38.734;2023-12-20T03:13:35;97696.41;;;2.32;100.00
72423;BME280;71399;54.146;38.734;2023-12-20T03:16:08;97705.47;;;2.29;100.00
72423;BME280;71399;54.146;38.734;2023-12-20T03:18:35;97700.41;;;2.34;100.00
72423;BME280;71399;54.146;38.734;2023-12-20T03:21:01;97717.00;;;2.33;100.00
72423;BME280;71399;54.146;38.734;2023-12-20T03:23:29;97720.16;;;2.35;100.00
72423;BME280;71399;54.146;38.734;2023-12-20T03:25:56;97731.94;;;2.38;100.00
72423;BME280;71399;54.146;38.734;2023-12-20T03:28:22;97734.78;;;2.36;100.00
72423;BME280;71399;54.146;38.734;2023-12-20T03:30:49;97734.84;;;2.30;100.00
72423;BME280;71399;54.146;38.734;2023-12-20T03:33:15;97744.59;;;2.34;100.00
72423;BME280;71399;54.146;38.734;2023-12-20T03:35:42;97731.25;;;2.31;100.00
72423;BME280;71399;54.146;38.734;2023-12-20T03:38:08;97740.84;;;2.30;100.00
72423;BME280;71399;54.146;38.734;2023-12-20T03:40:35;97744.81;;;2.33;100.00
72423;BME280;71399;54.146;38.734;2023-12-20T03:43:01;97745.03;;;2.31;100.00
72423;BME280;71399;54.146;38.734;2023-12-20T03:45:27;97746.03;;;2.30;100.00
72423;BME280;71399;54.146;38.734;2023-12-20T03:47:54;97750.22;;;2.31;100.00
72423;BME280;71399;54.146;38.734;2023-12-20T03:50:23;97760.84;;;2.30;100.00
72423;BME280;71399;54.146;38.734;2023-12-20T03:52:49;97766.41;;;2.33;100.00
72423;BME280;71399;54.146;38.734;2023-12-20T03:55:16;97770.59;;;2.34;100.00
72423;BME280;71399;54.146;38.734;2023-12-20T03:57:42;97767.19;;;2.34;100.00
72423;BME280;71399;54.146;38.734;2023-12-20T04:00:09;97773.56;;;2.38;100.00
72423;BME280;71399;54.146;38.734;2023-12-20T04:02:39;97765.25;;;2.29;100.00
72423;BME280;71399;54.146;38.734;2023-12-20T04:05:06;97776.16;;;2.38;100.00
72423;BME280;71399;54.146;38.734;2023-12-20T04:07:33;97776.50;;;2.41;100.00
72423;BME280;71399;54.146;38.734;2023-12-20T04:10:00;97766.69;;;2.44;100.00
72423;BME280;71399;54.146;38.734;2023-12-20T04:12:27;97765.88;;;2.43;100.00
72423;BME280;71399;54.146;38.734;2023-12-20T04:14:54;97757.88;;;2.45;100.00
72423;BME280;71399;54.146;38.734;2023-12-20T04:17:20;97753.41;;;2.33;100.00
72423;BME280;71399;54.146;38.734;2023-12-20T04:19:49;97754.09;;;2.40;100.00
72423;BME280;71399;54.146;38.734;2023-12-20T04:22:16;97754.91;;;2.41;100.00
72423;BME280;71399;54.146;38.734;2023-12-20T04:24:43;97758.31;;;2.41;100.00
72423;BME280;71399;54.146;38.734;2023-12-20T04:27:09;97758.31;;;2.41;100.00
72423;BME280;71399;54.146;38.734;2023-12-20T04:29:36;97748.91;;;2.40;100.00
72423;BME280;71399;54.146;38.734;2023-12-20T04:32:03;97751.50;;;2.40;100.00
72423;BME280;71399;54.146;38.734;2023-12-20T04:34:29;97734.34;;;2.39;100.00
72423;BME280;71399;54.146;38.734;2023-12-20T04:36:55;97746.31;;;2.40;100.00
72423;BME280;71399;54.146;38.734;2023-12-20T04:39:21;97736.00;;;2.34;100.00
72423;BME280;71399;54.146;38.734;2023-12-20T04:41:48;97742.91;;;2.40;100.00
72423;BME280;71399;54.146;38.734;2023-12-20T04:44:15;97746.56;;;2.39;100.00
72423;BME280;71399;54.146;38.734;2023-12-20T04:46:41;97739.75;;;2.38;100.00
72423;BME280;71399;54.146;38.734;2023-12-20T04:49:08;97736.38;;;2.37;100.00
72423;BME280;71399;54.146;38.734;2023-12-20T04:51:34;97739.19;;;2.36;100.00
72423;BME280;71399;54.146;38.734;2023-12-20T04:54:02;97740.19;;;2.35;100.00
72423;BME280;71399;54.146;38.734;2023-12-20T04:56:28;97742.78;;;2.35;100.00
72423;BME280;71399;54.146;38.734;2023-12-20T04:58:54;97740.75;;;2.37;100.00
72423;BME280;71399;54.146;38.734;2023-12-20T05:01:21;97738.75;;;2.39;100.00
72423;BME280;71399;54.146;38.734;2023-12-20T05:03:47;97730.72;;;2.40;100.00
72423;BME280;71399;54.146;38.734;2023-12-20T05:06:14;97719.53;;;2.40;100.00
72423;BME280;71399;54.146;38.734;2023-12-20T05:08:40;97722.56;;;2.37;100.00
72423;BME280;71399;54.146;38.734;2023-12-20T05:11:07;97707.03;;;2.30;100.00
72423;BME280;71399;54.146;38.734;2023-12-20T05:13:33;97713.97;;;2.36;100.00
72423;BME280;71399;54.146;38.734;2023-12-20T05:15:59;97711.44;;;2.30;100.00
72423;BME280;71399;54.146;38.734;2023-12-20T05:18:26;97709.41;;;2.32;100.00
72423;BME280;71399;54.146;38.734;2023-12-20T05:20:52;97713.84;;;2.31;100.00
72423;BME280;71399;54.146;38.734;2023-12-20T05:23:19;97696.94;;;2.22;100.00
72423;BME280;71399;54.146;38.734;2023-12-20T05:25:46;97698.09;;;2.26;100.00
72423;BME280;71399;54.146;38.734;2023-12-20T05:28:13;97697.31;;;2.26;100.00
72423;BME280;71399;54.146;38.734;2023-12-20T05:30:39;97711.66;;;2.28;100.00
72423;BME280;71399;54.146;38.734;2023-12-20T05:33:05;97710.53;;;2.24;100.00
72423;BME280;71399;54.146;38.734;2023-12-20T05:35:32;97715.88;;;2.29;100.00
72423;BME280;71399;54.146;38.734;2023-12-20T05:37:58;97713.28;;;2.29;100.00
72423;BME280;71399;54.146;38.734;2023-12-20T05:40:24;97704.00;;;2.33;100.00
72423;BME280;71399;54.146;38.734;2023-12-20T05:42:51;97697.81;;;2.34;100.00
72423;BME280;71399;54.146;38.734;2023-12-20T05:45:17;97691.22;;;2.32;100.00
72423;BME280;71399;54.146;38.734;2023-12-20T05:47:43;97671.06;;;2.27;100.00
72423;BME280;71399;54.146;38.734;2023-12-20T05:50:09;97678.88;;;2.27;100.00
72423;BME280;71399;54.146;38.734;2023-12-20T05:52:36;97669.50;;;2.26;100.00
72423;BME280;71399;54.146;38.734;2023-12-20T05:55:02;97669.50;;;2.26;100.00
72423;BME280;71399;54.146;38.734;2023-12-20T05:57:32;97664.31;;;2.26;100.00
72423;BME280;71399;54.146;38.734;2023-12-20T05:59:59;97665.75;;;2.22;100.00
72423;BME280;71399;54.146;38.734;2023-12-20T06:02:26;97666.69;;;2.28;100.00
72423;BME280;71399;54.146;38.734;2023-12-20T06:04:52;97670.72;;;2.23;100.00
72423;BME280;71399;54.146;38.734;2023-12-20T06:07:19;97665.41;;;2.18;100.00
72423;BME280;71399;54.146;38.734;2023-12-20T06:09:45;97672.09;;;2.26;100.00
72423;BME280;71399;54.146;38.734;2023-12-20T06:12:11;97667.78;;;2.20;100.00
72423;BME280;71399;54.146;38.734;2023-12-20T06:14:38;97668.22;;;2.17;100.00
72423;BME280;71399;54.146;38.734;2023-12-20T06:17:04;97669.03;;;2.17;100.00
72423;BME280;71399;54.146;38.734;2023-12-20T06:19:30;97686.31;;;2.23;100.00
72423;BME280;71399;54.146;38.734;2023-12-20T06:21:57;97682.28;;;2.28;100.00
72423;BME280;71399;54.146;38.734;2023-12-20T06:24:23;97688.28;;;2.28;100.00
72423;BME280;71399;54.146;38.734;2023-12-20T06:26:54;97688.84;;;2.30;100.00
72423;BME280;71399;54.146;38.734;2023-12-20T06:29:21;97684.88;;;2.28;100.00
72423;BME280;71399;54.146;38.734;2023-12-20T06:31:47;97677.88;;;2.28;100.00
72423;BME280;71399;54.146;38.734;2023-12-20T06:34:14;97670.28;;;2.27;100.00
72423;BME280;71399;54.146;38.734;2023-12-20T06:36:40;97669.06;;;2.29;100.00
72423;BME280;71399;54.146;38.734;2023-12-20T06:39:07;97684.16;;;2.39;100.00
72423;BME280;71399;54.146;38.734;2023-12-20T06:41:34;97676.09;;;2.40;100.00
72423;BME280;71399;54.146;38.734;2023-12-20T06:44:01;97676.09;;;2.40;100.00
72423;BME280;71399;54.146;38.734;2023-12-20T06:46:27;97661.97;;;2.36;100.00
72423;BME280;71399;54.146;38.734;2023-12-20T06:48:53;97657.34;;;2.38;100.00
72423;BME280;71399;54.146;38.734;2023-12-20T06:51:20;97635.63;;;2.33;100.00
72423;BME280;71399;54.146;38.734;2023-12-20T06:53:46;97637.09;;;2.40;100.00
72423;BME280;71399;54.146;38.734;2023-12-20T06:56:13;97635.31;;;2.41;100.00
72423;BME280;71399;54.146;38.734;2023-12-20T06:58:39;97619.16;;;2.39;100.00
72423;BME280;71399;54.146;38.734;2023-12-20T07:01:05;97634.78;;;2.51;100.00
72423;BME280;71399;54.146;38.734;2023-12-20T07:03:36;97637.00;;;2.47;100.00
72423;BME280;71399;54.146;38.734;2023-12-20T07:06:03;97624.50;;;2.56;100.00
72423;BME280;71399;54.146;38.734;2023-12-20T07:08:29;97611.72;;;2.54;100.00
72423;BME280;71399;54.146;38.734;2023-12-20T07:10:55;97610.13;;;2.53;100.00
72423;BME280;71399;54.146;38.734;2023-12-20T07:13:22;97601.09;;;2.56;100.00
72423;BME280;71399;54.146;38.734;2023-12-20T07:15:48;97596.44;;;2.58;100.00
72423;BME280;71399;54.146;38.734;2023-12-20T07:18:15;97594.41;;;2.60;100.00
72423;BME280;71399;54.146;38.734;2023-12-20T07:20:41;97597.03;;;2.60;100.00
72423;BME280;71399;54.146;38.734;2023-12-20T07:23:07;97583.91;;;2.67;100.00
72423;BME280;71399;54.146;38.734;2023-12-20T07:25:33;97570.22;;;2.71;100.00
72423;BME280;71399;54.146;38.734;2023-12-20T07:28:00;97552.13;;;2.76;100.00
72423;BME280;71399;54.146;38.734;2023-12-20T07:30:26;97541.41;;;2.85;100.00
72423;BME280;71399;54.146;38.734;2023-12-20T07:32:53;97534.13;;;2.99;100.00
72423;BME280;71399;54.146;38.734;2023-12-20T07:35:19;97515.78;;;3.05;100.00
72423;BME280;71399;54.146;38.734;2023-12-20T07:37:45;97487.03;;;3.12;100.00
72423;BME280;71399;54.146;38.734;2023-12-20T07:40:12;97450.38;;;3.13;100.00
72423;BME280;71399;54.146;38.734;2023-12-20T07:42:38;97408.50;;;3.15;100.00
72423;BME280;71399;54.146;38.734;2023-12-20T07:45:05;97400.44;;;3.17;100.00
72423;BME280;71399;54.146;38.734;2023-12-20T07:47:32;97356.44;;;3.15;100.00
72423;BME280;71399;54.146;38.734;2023-12-20T07:49:58;97352.66;;;3.23;100.00
72423;BME280;71399;54.146;38.734;2023-12-20T07:52:24;97337.59;;;3.25;100.00
72423;BME280;71399;54.146;38.734;2023-12-20T07:54:52;97303.81;;;3.13;100.00
72423;BME280;71399;54.146;38.734;2023-12-20T07:57:18;97325.28;;;3.20;100.00
72423;BME280;71399;54.146;38.734;2023-12-20T07:59:44;97305.66;;;3.12;100.00
72423;BME280;71399;54.146;38.734;2023-12-20T08:02:11;97300.91;;;3.09;100.00
72423;BME280;71399;54.146;38.734;2023-12-20T08:04:37;97285.56;;;2.96;100.00
72423;BME280;71399;54.146;38.734;2023-12-20T08:07:04;97310.66;;;3.02;100.00
72423;BME280;71399;54.146;38.734;2023-12-20T08:09:30;97325.72;;;3.00;100.00
72423;BME280;71399;54.146;38.734;2023-12-20T08:11:57;97312.06;;;2.93;100.00
72423;BME280;71399;54.146;38.734;2023-12-20T08:14:25;97322.00;;;2.96;100.00
72423;BME280;71399;54.146;38.734;2023-12-20T08:16:51;97336.59;;;2.97;100.00
72423;BME280;71399;54.146;38.734;2023-12-20T08:19:18;97319.31;;;2.91;100.00
72423;BME280;71399;54.146;38.734;2023-12-20T08:21:44;97333.75;;;2.99;100.00
72423;BME280;71399;54.146;38.734;2023-12-20T08:24:10;97327.75;;;2.98;100.00
72423;BME280;71399;54.146;38.734;2023-12-20T08:26:37;97303.34;;;2.87;100.00
72423;BME280;71399;54.146;38.734;2023-12-20T08:29:03;97300.06;;;2.92;100.00
72423;BME280;71399;54.146;38.734;2023-12-20T08:31:29;97292.63;;;2.84;100.00
72423;BME280;71399;54.146;38.734;2023-12-20T08:33:55;97303.13;;;2.89;100.00
72423;BME280;71399;54.146;38.734;2023-12-20T08:36:22;97296.28;;;2.83;100.00
72423;BME280;71399;54.146;38.734;2023-12-20T08:38:49;97304.41;;;2.86;100.00
72423;BME280;71399;54.146;38.734;2023-12-20T08:41:16;97302.53;;;2.99;100.00
72423;BME280;71399;54.146;38.734;2023-12-20T08:43:44;97277.16;;;3.06;100.00
72423;BME280;71399;54.146;38.734;2023-12-20T08:46:10;97239.38;;;3.03;100.00
72423;BME280;71399;54.146;38.734;2023-12-20T08:48:40;97238.97;;;3.11;100.00
72423;BME280;71399;54.146;38.734;2023-12-20T08:51:06;97237.56;;;3.21;100.00
72423;BME280;71399;54.146;38.734;2023-12-20T08:53:34;97234.47;;;3.24;100.00
72423;BME280;71399;54.146;38.734;2023-12-20T08:56:00;97207.25;;;3.31;100.00
72423;BME280;71399;54.146;38.734;2023-12-20T08:58:28;97185.66;;;3.31;100.00
72423;BME280;71399;54.146;38.734;2023-12-20T09:00:55;97170.03;;;3.31;100.00
72423;BME280;71399;54.146;38.734;2023-12-20T09:03:21;97182.00;;;3.32;100.00
72423;BME280;71399;54.146;38.734;2023-12-20T09:05:47;97174.66;;;3.29;100.00
72423;BME280;71399;54.146;38.734;2023-12-20T09:08:13;97170.97;;;3.25;100.00
72423;BME280;71399;54.146;38.734;2023-12-20T09:10:40;97175.06;;;3.21;100.00
72423;BME280;71399;54.146;38.734;2023-12-20T09:13:06;97189.22;;;3.25;100.00
72423;BME280;71399;54.146;38.734;2023-12-20T09:15:33;97172.97;;;3.18;100.00
72423;BME280;71399;54.146;38.734;2023-12-20T09:18:00;97182.25;;;3.13;100.00
72423;BME280;71399;54.146;38.734;2023-12-20T09:20:27;97194.50;;;3.13;100.00
72423;BME280;71399;54.146;38.734;2023-12-20T09:22:53;97191.59;;;3.09;100.00
72423;BME280;71399;54.146;38.734;2023-12-20T09:25:19;97186.94;;;3.11;100.00
72423;BME280;71399;54.146;38.734;2023-12-20T09:27:46;97204.13;;;3.12;100.00
72423;BME280;71399;54.146;38.734;2023-12-20T09:30:12;97193.16;;;3.10;100.00
72423;BME280;71399;54.146;38.734;2023-12-20T09:32:39;97189.91;;;3.03;100.00
72423;BME280;71399;54.146;38.734;2023-12-20T09:35:05;97200.09;;;3.05;100.00
72423;BME280;71399;54.146;38.734;2023-12-20T09:37:32;97208.69;;;3.05;100.00
72423;BME280;71399;54.146;38.734;2023-12-20T09:39:59;97210.59;;;3.10;100.00
72423;BME280;71399;54.146;38.734;2023-12-20T09:43:14;97198.50;;;3.04;100.00
72423;BME280;71399;54.146;38.734;2023-12-20T09:45:21;97222.66;;;3.16;100.00
72423;BME280;71399;54.146;38.734;2023-12-20T09:47:53;97227.63;;;3.18;100.00
72423;BME280;71399;54.146;38.734;2023-12-20T09:50:23;97208.59;;;3.17;100.00
72423;BME280;71399;54.146;38.734;2023-12-20T09:52:52;97205.44;;;3.15;100.00
72423;BME280;71399;54.146;38.734;2023-12-20T09:55:19;97183.16;;;3.19;100.00
72423;BME280;71399;54.146;38.734;2023-12-20T09:57:47;97171.84;;;3.13;100.00
72423;BME280;71399;54.146;38.734;2023-12-20T10:00:14;97181.31;;;3.20;100.00
72423;BME280;71399;54.146;38.734;2023-12-20T10:02:53;97185.19;;;3.17;100.00
72423;BME280;71399;54.146;38.734;2023-12-20T10:05:30;97182.56;;;3.17;100.00
72423;BME280;71399;54.146;38.734;2023-12-20T10:07:57;97175.34;;;3.19;100.00
72423;BME280;71399;54.146;38.734;2023-12-20T10:10:24;97176.50;;;3.28;100.00
72423;BME280;71399;54.146;38.734;2023-12-20T10:13:03;97175.25;;;3.31;100.00
72423;BME280;71399;54.146;38.734;2023-12-20T10:15:30;97169.28;;;3.36;100.00
72423;BME280;71399;54.146;38.734;2023-12-20T10:17:57;97158.09;;;3.35;100.00
72423;BME280;71399;54.146;38.734;2023-12-20T10:20:23;97144.00;;;3.31;100.00
72423;BME280;71399;54.146;38.734;2023-12-20T10:22:49;97141.81;;;3.23;100.00
72423;BME280;71399;54.146;38.734;2023-12-20T10:25:16;97138.91;;;3.19;100.00
72423;BME280;71399;54.146;38.734;2023-12-20T10:27:44;97141.72;;;3.18;100.00
72423;BME280;71399;54.146;38.734;2023-12-20T10:30:11;97157.59;;;3.16;100.00
72423;BME280;71399;54.146;38.734;2023-12-20T10:32:37;97160.44;;;3.14;100.00
72423;BME280;71399;54.146;38.734;2023-12-20T10:35:04;97168.22;;;3.14;100.00
72423;BME280;71399;54.146;38.734;2023-12-20T10:37:31;97149.28;;;3.02;100.00
72423;BME280;71399;54.146;38.734;2023-12-20T10:39:59;97167.13;;;3.10;100.00
72423;BME280;71399;54.146;38.734;2023-12-20T10:42:30;97170.53;;;3.11;100.00
72423;BME280;71399;54.146;38.734;2023-12-20T10:44:59;97157.69;;;3.04;100.00
72423;BME280;71399;54.146;38.734;2023-12-20T10:47:26;97167.59;;;3.07;100.00
72423;BME280;71399;54.146;38.734;2023-12-20T10:49:54;97167.03;;;3.05;100.00
72423;BME280;71399;54.146;38.734;2023-12-20T10:52:23;97165.47;;;3.04;100.00
72423;BME280;71399;54.146;38.734;2023-12-20T10:54:53;97159.63;;;2.97;100.00
72423;BME280;71399;54.146;38.734;2023-12-20T10:57:19;97152.88;;;2.96;100.00
72423;BME280;71399;54.146;38.734;2023-12-20T10:59:49;97167.50;;;3.02;100.00
72423;BME280;71399;54.146;38.734;2023-12-20T11:02:18;97153.72;;;3.02;100.00
72423;BME280;71399;54.146;38.734;2023-12-20T11:04:50;97155.31;;;3.03;100.00
72423;BME280;71399;54.146;38.734;2023-12-20T11:07:57;97141.50;;;3.02;100.00
72423;BME280;71399;54.146;38.734;2023-12-20T11:10:37;97153.25;;;3.05;100.00
72423;BME280;71399;54.146;38.734;2023-12-20T11:13:12;97148.34;;;3.08;100.00
72423;BME280;71399;54.146;38.734;2023-12-20T11:15:42;97145.75;;;3.08;100.00
72423;BME280;71399;54.146;38.734;2023-12-20T11:18:09;97126.91;;;3.01;100.00
72423;BME280;71399;54.146;38.734;2023-12-20T11:20:40;97133.75;;;3.07;100.00
72423;BME280;71399;54.146;38.734;2023-12-20T11:23:08;97110.50;;;3.01;100.00
72423;BME280;71399;54.146;38.734;2023-12-20T11:25:57;97107.41;;;3.04;100.00
72423;BME280;71399;54.146;38.734;2023-12-20T11:28:25;97103.72;;;3.00;100.00
72423;BME280;71399;54.146;38.734;2023-12-20T11:30:54;97118.06;;;3.02;100.00
72423;BME280;71399;54.146;38.734;2023-12-20T11:33:22;97109.72;;;3.00;100.00
72423;BME280;71399;54.146;38.734;2023-12-20T11:35:49;97118.06;;;3.02;100.00
72423;BME280;71399;54.146;38.734;2023-12-20T11:38:16;97118.63;;;3.04;100.00
72423;BME280;71399;54.146;38.734;2023-12-20T11:40:43;97115.00;;;3.05;100.00
72423;BME280;71399;54.146;38.734;2023-12-20T11:43:10;97111.38;;;3.06;100.00
72423;BME280;71399;54.146;38.734;2023-12-20T11:45:36;97094.66;;;3.02;100.00
72423;BME280;71399;54.146;38.734;2023-12-20T11:48:03;97093.09;;;3.01;100.00
72423;BME280;71399;54.146;38.734;2023-12-20T11:50:29;97080.47;;;2.93;100.00
72423;BME280;71399;54.146;38.734;2023-12-20T11:52:57;97083.88;;;2.93;100.00
72423;BME280;71399;54.146;38.734;2023-12-20T11:55:23;97093.50;;;2.93;100.00
72423;BME280;71399;54.146;38.734;2023-12-20T11:57:50;97086.94;;;2.90;100.00
72423;BME280;71399;54.146;38.734;2023-12-20T12:00:18;97093.66;;;2.86;100.00
72423;BME280;71399;54.146;38.734;2023-12-20T12:02:56;97106.91;;;2.85;100.00
72423;BME280;71399;54.146;38.734;2023-12-20T12:05:23;97115.72;;;2.84;100.00
72423;BME280;71399;54.146;38.734;2023-12-20T12:07:49;97109.91;;;2.76;100.00
72423;BME280;71399;54.146;38.734;2023-12-20T12:10:15;97106.97;;;2.73;100.00
72423;BME280;71399;54.146;38.734;2023-12-20T12:12:42;97116.03;;;2.70;100.00
72423;BME280;71399;54.146;38.734;2023-12-20T12:15:08;97119.38;;;2.66;100.00
72423;BME280;71399;54.146;38.734;2023-12-20T12:17:35;97128.03;;;2.54;100.00
72423;BME280;71399;54.146;38.734;2023-12-20T12:20:03;97149.38;;;2.56;100.00
72423;BME280;71399;54.146;38.734;2023-12-20T12:22:30;97154.50;;;2.51;100.00
72423;BME280;71399;54.146;38.734;2023-12-20T12:24:59;97158.25;;;2.44;100.00
72423;BME280;71399;54.146;38.734;2023-12-20T12:27:27;97182.00;;;2.35;100.00
72423;BME280;71399;54.146;38.734;2023-12-20T12:30:00;97192.56;;;2.29;100.00
72423;BME280;71399;54.146;38.734;2023-12-20T12:32:32;97215.41;;;2.27;100.00
72423;BME280;71399;54.146;38.734;2023-12-20T12:34:58;97239.47;;;2.22;100.00
72423;BME280;71399;54.146;38.734;2023-12-20T12:37:25;97261.41;;;2.26;100.00
72423;BME280;71399;54.146;38.734;2023-12-20T12:39:56;97272.47;;;2.21;100.00
72423;BME280;71399;54.146;38.734;2023-12-20T12:42:23;97279.72;;;2.19;100.00
72423;BME280;71399;54.146;38.734;2023-12-20T12:44:54;97284.50;;;2.11;100.00
72423;BME280;71399;54.146;38.734;2023-12-20T12:47:22;97297.59;;;2.16;100.00
72423;BME280;71399;54.146;38.734;2023-12-20T12:49:50;97311.38;;;2.16;100.00